Cordoba, Spain
Current Conditions -  °F | °C
As of 2:00 PM on Friday 28 Nov 2014 (Local Time) from LEBA Reporting Station
Broken Clouds Broken Clouds  
Wind Chill: 59°   Ceiling: 4000
Heat Index: 59°   Visibility: 6mi
Dew Point: 54°   Wind: 8mph
Humidity: 82%   Direction: 250°WSW
Pressure: 29.12"   Gusts: NA
Location:  37.89°N, 4.78°W
Report Text: LEBA 281300Z 25007KT 9999 SCT021 BKN040 15/12 Q0986
Loading
Personal Weather Stations






























Interactive Weather Map New forecast layout! Learn more

10-Day Weather Forecast

Advertisements
Track Severe Weather on mobile